MSR849 HECA-HKJK
Flight info
| Callsign | MSR849 |
|---|---|
| Flight time | 4h 43m |
| Altitude | 35000 |
| Route | CVO A727 NABED T55 DEDLU M999 JDW G650 RASKA/N0469F360 UG650 KONET UM308 GWZ/N0464F380 UM308 RUDOL/N0464F370 UM308 LOTAS LOTAS4D |
| Aircraft | B738/M-SDE2E3FGHIRWXY/LB1 |
Departure
| Time | 2026-05-07 06:56 |
|---|---|
| Airport | Cairo International Airport (HECA) |
Arrival
| Time | 2026-05-07 11:39 |
|---|---|
| Airport | Jomo Kenyatta International Airport (HKJK) |
| Time | Latitude | Longitude | Altitude | Speed | Heading |
|---|---|---|---|---|---|
| 2026-05-07 06:41 | 30.11228 | 31.40222 | 373 ft | 0 kts | 196° |
| 2026-05-07 06:44 | 30.11232 | 31.40224 | 373 ft | 3 kts | 197° |
| 2026-05-07 06:45 | 30.11257 | 31.40233 | 373 ft | 4 kts | 199° |
| 2026-05-07 06:45 | 30.11283 | 31.40243 | 373 ft | 4 kts | 195° |
| 2026-05-07 06:45 | 30.11308 | 31.40247 | 373 ft | 4 kts | 158° |
| 2026-05-07 06:45 | 30.11316 | 31.40241 | 373 ft | 0 kts | 106° |
| 2026-05-07 06:49 | 30.11313 | 31.40252 | 373 ft | 4 kts | 106° |
| 2026-05-07 06:50 | 30.11299 | 31.40312 | 373 ft | 11 kts | 105° |
| 2026-05-07 06:50 | 30.11251 | 31.40407 | 373 ft | 16 kts | 136° |
| 2026-05-07 06:50 | 30.11156 | 31.40501 | 373 ft | 19 kts | 141° |
| 2026-05-07 06:50 | 30.11054 | 31.40603 | 373 ft | 16 kts | 138° |
| 2026-05-07 06:51 | 30.10967 | 31.40602 | 373 ft | 14 kts | 229° |
| 2026-05-07 06:51 | 30.10904 | 31.40516 | 373 ft | 14 kts | 229° |
| 2026-05-07 06:51 | 30.10844 | 31.40436 | 373 ft | 13 kts | 229° |
| 2026-05-07 06:51 | 30.10781 | 31.40352 | 373 ft | 15 kts | 229° |
| 2026-05-07 06:52 | 30.10701 | 31.40247 | 373 ft | 19 kts | 229° |
| 2026-05-07 06:52 | 30.10604 | 31.40119 | 373 ft | 23 kts | 229° |
| 2026-05-07 06:52 | 30.10492 | 31.39970 | 373 ft | 26 kts | 229° |
| 2026-05-07 06:52 | 30.10377 | 31.39817 | 373 ft | 25 kts | 229° |
| 2026-05-07 06:53 | 30.10267 | 31.39673 | 373 ft | 23 kts | 229° |
| 2026-05-07 06:53 | 30.10199 | 31.39587 | 373 ft | 10 kts | 220° |
| 2026-05-07 06:53 | 30.10138 | 31.39587 | 373 ft | 9 kts | 145° |
| 2026-05-07 06:53 | 30.10086 | 31.39633 | 373 ft | 9 kts | 140° |
| 2026-05-07 06:54 | 30.10039 | 31.39679 | 373 ft | 9 kts | 139° |
| 2026-05-07 06:54 | 30.10006 | 31.39738 | 373 ft | 9 kts | 105° |
| 2026-05-07 06:54 | 30.10006 | 31.39805 | 373 ft | 9 kts | 76° |
| 2026-05-07 06:54 | 30.10022 | 31.39880 | 370 ft | 10 kts | 76° |
| 2026-05-07 06:55 | 30.10071 | 31.39962 | 369 ft | 16 kts | 48° |
| 2026-05-07 06:55 | 30.10244 | 31.40190 | 373 ft | 71 kts | 50° |
| 2026-05-07 06:55 | 30.10711 | 31.40812 | 371 ft | 132 kts | 49° |
| 2026-05-07 06:55 | 30.11408 | 31.41734 | 604 ft | 163 kts | 47° |
| 2026-05-07 06:56 | 30.12157 | 31.42731 | 1310 ft | 167 kts | 46° |
| 2026-05-07 06:56 | 30.12942 | 31.43763 | 1874 ft | 183 kts | 48° |
| 2026-05-07 06:56 | 30.13834 | 31.44957 | 2125 ft | 209 kts | 48° |
| 2026-05-07 06:56 | 30.14847 | 31.46301 | 2337 ft | 234 kts | 49° |
| 2026-05-07 06:57 | 30.15797 | 31.47886 | 2859 ft | 249 kts | 69° |
| 2026-05-07 06:57 | 30.15824 | 31.49879 | 3680 ft | 254 kts | 104° |
| 2026-05-07 06:57 | 30.14957 | 31.51700 | 4374 ft | 269 kts | 130° |
| 2026-05-07 06:57 | 30.13428 | 31.52985 | 5161 ft | 278 kts | 154° |
| 2026-05-07 06:58 | 30.11515 | 31.53450 | 5873 ft | 286 kts | 176° |
| 2026-05-07 06:58 | 30.09501 | 31.53436 | 6609 ft | 291 kts | 182° |
| 2026-05-07 06:58 | 30.07482 | 31.53321 | 7265 ft | 297 kts | 184° |
| 2026-05-07 06:58 | 30.05421 | 31.53175 | 8051 ft | 297 kts | 181° |
| 2026-05-07 06:59 | 30.03330 | 31.53170 | 8753 ft | 303 kts | 180° |
| 2026-05-07 06:59 | 30.01205 | 31.53109 | 9388 ft | 309 kts | 183° |
| 2026-05-07 06:59 | 29.99049 | 31.52990 | 10156 ft | 311 kts | 184° |
| 2026-05-07 06:59 | 29.96855 | 31.52865 | 10621 ft | 324 kts | 184° |
| 2026-05-07 07:00 | 29.94521 | 31.52740 | 10782 ft | 346 kts | 184° |
| 2026-05-07 07:00 | 29.92036 | 31.52602 | 10945 ft | 367 kts | 184° |
| 2026-05-07 07:00 | 29.89414 | 31.52481 | 11150 ft | 385 kts | 183° |
| 2026-05-07 07:00 | 29.86713 | 31.52369 | 11631 ft | 392 kts | 183° |
| 2026-05-07 07:01 | 29.83970 | 31.52269 | 12375 ft | 391 kts | 183° |
| 2026-05-07 07:01 | 29.82171 | 31.52214 | 12833 ft | 391 kts | 183° |
| 2026-05-07 07:01 | 29.79432 | 31.52111 | 13355 ft | 397 kts | 184° |
| 2026-05-07 07:01 | 29.76660 | 31.52004 | 13977 ft | 399 kts | 184° |
| 2026-05-07 07:02 | 29.73880 | 31.51916 | 14572 ft | 400 kts | 183° |
| 2026-05-07 07:02 | 29.71082 | 31.51864 | 15118 ft | 404 kts | 180° |
| 2026-05-07 07:02 | 29.68273 | 31.52263 | 15613 ft | 410 kts | 168° |
| 2026-05-07 07:02 | 29.65526 | 31.53145 | 16237 ft | 411 kts | 165° |
| 2026-05-07 07:03 | 29.62772 | 31.54083 | 16756 ft | 414 kts | 165° |
| 2026-05-07 07:03 | 29.59995 | 31.55031 | 17239 ft | 418 kts | 165° |
| 2026-05-07 07:03 | 29.57189 | 31.55979 | 17746 ft | 421 kts | 165° |
| 2026-05-07 07:03 | 29.54359 | 31.56925 | 18296 ft | 423 kts | 166° |
| 2026-05-07 07:04 | 29.51560 | 31.57852 | 18746 ft | 426 kts | 166° |
| 2026-05-07 07:04 | 29.48696 | 31.58795 | 19189 ft | 428 kts | 166° |
| 2026-05-07 07:04 | 29.45826 | 31.59736 | 19646 ft | 431 kts | 166° |
| 2026-05-07 07:04 | 29.42934 | 31.60683 | 20098 ft | 433 kts | 166° |
| 2026-05-07 07:05 | 29.40024 | 31.61635 | 20543 ft | 435 kts | 166° |
| 2026-05-07 07:05 | 29.37109 | 31.62588 | 20997 ft | 438 kts | 166° |
| 2026-05-07 07:05 | 29.34170 | 31.63549 | 21415 ft | 440 kts | 166° |
| 2026-05-07 07:05 | 29.31218 | 31.64513 | 21836 ft | 443 kts | 166° |
| 2026-05-07 07:06 | 29.28240 | 31.65485 | 22251 ft | 445 kts | 166° |
| 2026-05-07 07:06 | 29.25255 | 31.66459 | 22650 ft | 448 kts | 166° |
| 2026-05-07 07:06 | 29.22248 | 31.67440 | 23048 ft | 450 kts | 166° |
| 2026-05-07 07:06 | 29.19235 | 31.68422 | 23450 ft | 453 kts | 166° |
| 2026-05-07 07:07 | 29.16194 | 31.69413 | 23772 ft | 455 kts | 166° |
| 2026-05-07 07:07 | 29.13127 | 31.70412 | 24097 ft | 457 kts | 166° |
| 2026-05-07 07:07 | 29.10057 | 31.71411 | 24439 ft | 459 kts | 166° |
| 2026-05-07 07:07 | 29.07020 | 31.72399 | 24772 ft | 460 kts | 166° |
| 2026-05-07 07:08 | 29.03929 | 31.73403 | 25075 ft | 462 kts | 166° |
| 2026-05-07 07:08 | 29.00840 | 31.74407 | 25416 ft | 463 kts | 166° |
| 2026-05-07 07:08 | 28.97729 | 31.75416 | 25720 ft | 465 kts | 166° |
| 2026-05-07 07:08 | 28.94603 | 31.76418 | 26004 ft | 467 kts | 166° |
| 2026-05-07 07:09 | 28.91458 | 31.77417 | 26295 ft | 469 kts | 166° |
| 2026-05-07 07:09 | 28.88303 | 31.78416 | 26583 ft | 471 kts | 166° |
| 2026-05-07 07:09 | 28.85136 | 31.79418 | 26867 ft | 473 kts | 166° |
| 2026-05-07 07:09 | 28.81957 | 31.80425 | 27149 ft | 474 kts | 166° |
| 2026-05-07 07:10 | 28.78781 | 31.81431 | 27427 ft | 476 kts | 166° |
| 2026-05-07 07:10 | 28.75574 | 31.82448 | 27700 ft | 477 kts | 166° |
| 2026-05-07 07:10 | 28.72369 | 31.83463 | 27955 ft | 479 kts | 166° |
| 2026-05-07 07:10 | 28.69160 | 31.84479 | 28195 ft | 481 kts | 166° |
| 2026-05-07 07:11 | 28.65931 | 31.85501 | 28472 ft | 481 kts | 166° |
| 2026-05-07 07:11 | 28.62705 | 31.86522 | 28858 ft | 480 kts | 166° |
| 2026-05-07 07:11 | 28.59500 | 31.87536 | 29289 ft | 478 kts | 166° |
| 2026-05-07 07:11 | 28.56305 | 31.88546 | 29679 ft | 476 kts | 166° |
| 2026-05-07 07:12 | 28.53110 | 31.89554 | 30018 ft | 476 kts | 166° |
| 2026-05-07 07:12 | 28.49914 | 31.90563 | 30300 ft | 476 kts | 166° |
| 2026-05-07 07:12 | 28.46756 | 31.91558 | 30568 ft | 476 kts | 166° |
| 2026-05-07 07:12 | 28.43572 | 31.92562 | 30885 ft | 475 kts | 166° |
| 2026-05-07 07:13 | 28.40388 | 31.93564 | 31216 ft | 473 kts | 166° |
| 2026-05-07 07:13 | 28.37222 | 31.94561 | 31517 ft | 472 kts | 166° |
| 2026-05-07 07:13 | 28.34057 | 31.95556 | 31787 ft | 472 kts | 166° |
| 2026-05-07 07:13 | 28.30891 | 31.96551 | 32048 ft | 471 kts | 166° |
| 2026-05-07 07:14 | 28.27737 | 31.97542 | 32356 ft | 470 kts | 166° |
| 2026-05-07 07:14 | 28.24572 | 31.98536 | 32630 ft | 470 kts | 166° |
| 2026-05-07 07:14 | 28.21429 | 31.99528 | 32924 ft | 468 kts | 167° |
| 2026-05-07 07:14 | 28.18290 | 32.00510 | 33242 ft | 467 kts | 167° |
| 2026-05-07 07:15 | 28.15157 | 32.01490 | 33506 ft | 466 kts | 167° |
| 2026-05-07 07:15 | 28.12036 | 32.02466 | 33743 ft | 466 kts | 167° |
| 2026-05-07 07:15 | 28.08901 | 32.03447 | 34017 ft | 465 kts | 167° |
| 2026-05-07 07:15 | 28.05828 | 32.04409 | 34239 ft | 464 kts | 167° |
| 2026-05-07 07:16 | 28.02712 | 32.05384 | 34429 ft | 464 kts | 167° |
| 2026-05-07 07:16 | 27.99556 | 32.06383 | 34585 ft | 465 kts | 167° |
| 2026-05-07 07:16 | 27.96484 | 32.07365 | 34757 ft | 465 kts | 167° |
| 2026-05-07 07:16 | 27.93377 | 32.08379 | 35004 ft | 463 kts | 167° |
| 2026-05-07 07:17 | 27.87146 | 32.10371 | 35083 ft | 465 kts | 168° |
| 2026-05-07 07:17 | 27.80929 | 32.12338 | 35077 ft | 462 kts | 168° |
| 2026-05-07 07:18 | 27.74764 | 32.14304 | 35069 ft | 459 kts | 168° |
| 2026-05-07 07:18 | 27.68620 | 32.16262 | 35062 ft | 457 kts | 168° |
| 2026-05-07 07:19 | 27.62492 | 32.18210 | 35066 ft | 456 kts | 168° |
| 2026-05-07 07:19 | 27.56414 | 32.20139 | 35055 ft | 457 kts | 168° |
| 2026-05-07 07:20 | 27.50296 | 32.22078 | 35052 ft | 458 kts | 168° |
| 2026-05-07 07:20 | 27.44145 | 32.24026 | 35054 ft | 459 kts | 168° |
| 2026-05-07 07:21 | 27.37977 | 32.25978 | 35042 ft | 461 kts | 169° |
| 2026-05-07 07:21 | 27.31867 | 32.28255 | 35034 ft | 469 kts | 156° |
| 2026-05-07 07:22 | 27.29091 | 32.30231 | 35045 ft | 476 kts | 145° |
| 2026-05-07 07:22 | 27.26655 | 32.32780 | 35033 ft | 482 kts | 134° |
| 2026-05-07 07:22 | 27.22395 | 32.38628 | 35042 ft | 485 kts | 132° |
| 2026-05-07 07:23 | 27.18160 | 32.44547 | 35030 ft | 486 kts | 133° |
| 2026-05-07 07:23 | 27.13887 | 32.50421 | 35028 ft | 486 kts | 133° |
| 2026-05-07 07:24 | 27.09578 | 32.56274 | 35016 ft | 485 kts | 133° |
| 2026-05-07 07:24 | 27.05299 | 32.62064 | 34979 ft | 484 kts | 134° |
| 2026-05-07 07:25 | 26.98885 | 32.70778 | 35003 ft | 482 kts | 135° |
| 2026-05-07 07:26 | 26.94588 | 32.76543 | 35001 ft | 481 kts | 135° |
| 2026-05-07 07:26 | 26.90310 | 32.82304 | 35007 ft | 480 kts | 135° |
| 2026-05-07 07:27 | 26.86045 | 32.88050 | 35003 ft | 480 kts | 135° |
| 2026-05-07 07:27 | 26.81780 | 32.93732 | 34994 ft | 478 kts | 136° |
| 2026-05-07 07:28 | 26.77565 | 32.99496 | 35001 ft | 478 kts | 135° |
| 2026-05-07 07:28 | 26.73303 | 33.05205 | 35002 ft | 477 kts | 136° |
| 2026-05-07 07:29 | 26.69035 | 33.10897 | 34991 ft | 477 kts | 136° |
| 2026-05-07 07:29 | 26.64772 | 33.16594 | 34965 ft | 477 kts | 136° |
| 2026-05-07 07:30 | 26.60518 | 33.22279 | 34985 ft | 477 kts | 136° |
| 2026-05-07 07:30 | 26.56247 | 33.27982 | 34990 ft | 477 kts | 136° |
| 2026-05-07 07:31 | 26.51983 | 33.33668 | 34997 ft | 478 kts | 136° |
| 2026-05-07 07:31 | 26.47713 | 33.39356 | 34984 ft | 478 kts | 136° |
| 2026-05-07 07:32 | 26.43458 | 33.45013 | 34990 ft | 479 kts | 137° |
| 2026-05-07 07:32 | 26.39172 | 33.50698 | 34980 ft | 479 kts | 137° |
| 2026-05-07 07:33 | 26.34851 | 33.56424 | 34984 ft | 479 kts | 136° |
| 2026-05-07 07:33 | 26.30587 | 33.62069 | 34992 ft | 479 kts | 137° |
| 2026-05-07 07:34 | 26.26290 | 33.67753 | 34984 ft | 479 kts | 137° |
| 2026-05-07 07:34 | 26.21994 | 33.73428 | 34978 ft | 479 kts | 137° |
| 2026-05-07 07:35 | 26.17700 | 33.79091 | 34970 ft | 479 kts | 137° |
| 2026-05-07 07:35 | 26.13397 | 33.84761 | 34989 ft | 479 kts | 137° |
| 2026-05-07 07:36 | 26.09099 | 33.90416 | 34983 ft | 479 kts | 137° |
| 2026-05-07 07:36 | 26.04799 | 33.96068 | 34973 ft | 479 kts | 137° |
| 2026-05-07 07:37 | 26.00518 | 34.01688 | 34969 ft | 479 kts | 137° |
| 2026-05-07 07:37 | 25.96212 | 34.07334 | 34973 ft | 478 kts | 137° |
| 2026-05-07 07:38 | 25.91910 | 34.12968 | 34977 ft | 477 kts | 137° |
| 2026-05-07 07:38 | 25.87608 | 34.18590 | 34958 ft | 477 kts | 138° |
| 2026-05-07 07:39 | 25.83310 | 34.24194 | 34966 ft | 476 kts | 138° |
| 2026-05-07 07:39 | 25.79021 | 34.29783 | 34970 ft | 476 kts | 138° |
| 2026-05-07 07:40 | 25.74729 | 34.35369 | 34981 ft | 476 kts | 138° |
| 2026-05-07 07:40 | 25.70455 | 34.40927 | 34983 ft | 476 kts | 138° |
| 2026-05-07 07:41 | 25.66151 | 34.46516 | 34996 ft | 476 kts | 138° |
| 2026-05-07 07:41 | 25.61850 | 34.52098 | 34989 ft | 477 kts | 138° |
| 2026-05-07 07:42 | 25.57506 | 34.57651 | 34994 ft | 474 kts | 141° |
| 2026-05-07 07:42 | 25.52865 | 34.62811 | 35001 ft | 472 kts | 143° |
| 2026-05-07 07:43 | 25.48150 | 34.67867 | 34983 ft | 472 kts | 143° |
| 2026-05-07 07:43 | 25.43436 | 34.72968 | 34982 ft | 474 kts | 143° |
| 2026-05-07 07:44 | 25.38772 | 34.78054 | 34969 ft | 474 kts | 143° |
| 2026-05-07 07:44 | 25.34079 | 34.83180 | 34978 ft | 475 kts | 143° |
| 2026-05-07 07:45 | 25.29369 | 34.88317 | 34980 ft | 476 kts | 143° |
| 2026-05-07 07:45 | 25.24649 | 34.93456 | 34981 ft | 476 kts | 143° |
| 2026-05-07 07:46 | 25.19923 | 34.98596 | 34982 ft | 477 kts | 143° |
| 2026-05-07 07:46 | 25.15202 | 35.03725 | 34977 ft | 476 kts | 144° |
| 2026-05-07 07:47 | 25.10509 | 35.08820 | 34978 ft | 475 kts | 144° |
| 2026-05-07 07:47 | 25.05790 | 35.13933 | 34979 ft | 475 kts | 144° |
| 2026-05-07 07:48 | 25.01057 | 35.19029 | 34976 ft | 474 kts | 144° |
| 2026-05-07 07:48 | 24.97128 | 35.23243 | 34978 ft | 474 kts | 144° |
| 2026-05-07 07:49 | 24.92404 | 35.28309 | 34968 ft | 473 kts | 145° |
| 2026-05-07 07:49 | 24.87685 | 35.33366 | 34973 ft | 472 kts | 145° |
| 2026-05-07 07:50 | 24.82975 | 35.38410 | 34973 ft | 472 kts | 145° |
| 2026-05-07 07:50 | 24.78307 | 35.43404 | 34942 ft | 471 kts | 145° |
| 2026-05-07 07:51 | 24.73611 | 35.48423 | 34963 ft | 470 kts | 146° |
| 2026-05-07 07:51 | 24.68925 | 35.53424 | 34978 ft | 469 kts | 146° |
| 2026-05-07 07:52 | 24.64239 | 35.58419 | 34968 ft | 469 kts | 146° |
| 2026-05-07 07:52 | 24.59560 | 35.63402 | 34964 ft | 469 kts | 146° |
| 2026-05-07 07:53 | 24.54878 | 35.68382 | 34964 ft | 469 kts | 146° |
| 2026-05-07 07:53 | 24.50185 | 35.73369 | 34967 ft | 469 kts | 146° |
| 2026-05-07 07:54 | 24.45490 | 35.78353 | 34958 ft | 469 kts | 146° |
| 2026-05-07 07:54 | 24.40795 | 35.83331 | 34941 ft | 469 kts | 146° |
| 2026-05-07 07:55 | 24.36111 | 35.88294 | 34955 ft | 469 kts | 146° |
| 2026-05-07 07:55 | 24.31407 | 35.93269 | 34967 ft | 469 kts | 146° |
| 2026-05-07 07:56 | 24.26743 | 35.98198 | 34959 ft | 469 kts | 146° |
| 2026-05-07 07:56 | 24.22040 | 36.03164 | 34960 ft | 469 kts | 146° |
| 2026-05-07 07:57 | 24.17324 | 36.08137 | 34957 ft | 470 kts | 146° |
| 2026-05-07 07:57 | 24.12614 | 36.13099 | 34956 ft | 470 kts | 146° |
| 2026-05-07 07:58 | 24.07905 | 36.18055 | 34957 ft | 470 kts | 146° |
| 2026-05-07 07:58 | 24.03217 | 36.22984 | 34948 ft | 469 kts | 146° |
| 2026-05-07 07:59 | 23.98502 | 36.27936 | 34952 ft | 469 kts | 146° |
| 2026-05-07 07:59 | 23.93796 | 36.32872 | 34955 ft | 469 kts | 146° |
| 2026-05-07 08:00 | 23.89091 | 36.37801 | 34950 ft | 469 kts | 146° |
| 2026-05-07 08:00 | 23.84380 | 36.42733 | 34955 ft | 469 kts | 146° |
| 2026-05-07 08:01 | 23.79662 | 36.47665 | 34950 ft | 469 kts | 146° |
| 2026-05-07 08:01 | 23.74952 | 36.52585 | 34936 ft | 469 kts | 146° |
| 2026-05-07 08:02 | 23.70241 | 36.57502 | 34941 ft | 469 kts | 146° |
| 2026-05-07 08:02 | 23.65527 | 36.62415 | 34939 ft | 468 kts | 146° |
| 2026-05-07 08:03 | 23.60816 | 36.67321 | 34944 ft | 468 kts | 146° |
| 2026-05-07 08:03 | 23.56105 | 36.72221 | 34942 ft | 468 kts | 146° |
| 2026-05-07 08:04 | 23.51383 | 36.77127 | 34928 ft | 468 kts | 145° |
| 2026-05-07 08:04 | 23.46670 | 36.82020 | 34932 ft | 468 kts | 145° |
| 2026-05-07 08:05 | 23.41977 | 36.86886 | 34941 ft | 468 kts | 146° |
| 2026-05-07 08:05 | 23.37230 | 36.91802 | 34940 ft | 468 kts | 146° |
| 2026-05-07 08:06 | 23.32537 | 36.96659 | 34923 ft | 468 kts | 145° |
| 2026-05-07 08:06 | 23.27824 | 37.01531 | 34929 ft | 467 kts | 145° |
| 2026-05-07 08:07 | 23.23103 | 37.06407 | 34940 ft | 467 kts | 145° |
| 2026-05-07 08:07 | 23.18393 | 37.11265 | 34936 ft | 466 kts | 145° |
| 2026-05-07 08:08 | 23.13686 | 37.16116 | 34934 ft | 466 kts | 145° |
| 2026-05-07 08:08 | 23.08987 | 37.20954 | 34933 ft | 465 kts | 145° |
| 2026-05-07 08:09 | 23.04293 | 37.25781 | 34918 ft | 465 kts | 146° |
| 2026-05-07 08:09 | 22.99626 | 37.30577 | 34929 ft | 464 kts | 146° |
| 2026-05-07 08:10 | 22.94929 | 37.35399 | 34922 ft | 464 kts | 146° |
| 2026-05-07 08:10 | 22.90242 | 37.40205 | 34927 ft | 464 kts | 146° |
| 2026-05-07 08:11 | 22.85549 | 37.45012 | 34926 ft | 464 kts | 146° |
| 2026-05-07 08:11 | 22.80847 | 37.49826 | 34923 ft | 465 kts | 146° |
| 2026-05-07 08:12 | 22.76145 | 37.54644 | 34923 ft | 467 kts | 144° |
| 2026-05-07 08:12 | 22.73963 | 37.57305 | 34906 ft | 479 kts | 135° |
| 2026-05-07 08:12 | 22.72048 | 37.60276 | 34934 ft | 482 kts | 133° |
| 2026-05-07 08:13 | 22.68249 | 37.66267 | 34923 ft | 481 kts | 134° |
| 2026-05-07 08:13 | 22.64406 | 37.72144 | 34902 ft | 481 kts | 134° |
| 2026-05-07 08:14 | 22.60522 | 37.78040 | 34915 ft | 481 kts | 134° |
| 2026-05-07 08:14 | 22.56641 | 37.83939 | 34917 ft | 481 kts | 134° |
| 2026-05-07 08:15 | 22.52766 | 37.89833 | 34925 ft | 480 kts | 134° |
| 2026-05-07 08:15 | 22.48889 | 37.95727 | 34915 ft | 480 kts | 134° |
| 2026-05-07 08:16 | 22.45012 | 38.01613 | 34913 ft | 480 kts | 134° |
| 2026-05-07 08:16 | 22.41141 | 38.07483 | 34919 ft | 480 kts | 134° |
| 2026-05-07 08:17 | 22.37286 | 38.13322 | 34915 ft | 480 kts | 134° |
| 2026-05-07 08:17 | 22.33411 | 38.19188 | 34898 ft | 480 kts | 134° |
| 2026-05-07 08:18 | 22.29529 | 38.25055 | 34905 ft | 480 kts | 134° |
| 2026-05-07 08:18 | 22.25633 | 38.30925 | 34910 ft | 481 kts | 135° |
| 2026-05-07 08:19 | 22.21724 | 38.36802 | 34908 ft | 482 kts | 135° |
| 2026-05-07 08:19 | 22.17814 | 38.42680 | 34903 ft | 482 kts | 135° |
| 2026-05-07 08:20 | 22.13898 | 38.48563 | 34889 ft | 483 kts | 134° |
| 2026-05-07 08:20 | 22.09971 | 38.54455 | 34901 ft | 483 kts | 134° |
| 2026-05-07 08:21 | 22.06066 | 38.60309 | 34897 ft | 484 kts | 134° |
| 2026-05-07 08:21 | 22.02125 | 38.66210 | 34873 ft | 485 kts | 134° |
| 2026-05-07 08:22 | 21.98188 | 38.72099 | 34887 ft | 485 kts | 134° |
| 2026-05-07 08:22 | 21.94241 | 38.77997 | 34891 ft | 485 kts | 134° |
| 2026-05-07 08:23 | 21.90293 | 38.83888 | 34894 ft | 485 kts | 135° |
| 2026-05-07 08:23 | 21.86341 | 38.89781 | 34864 ft | 485 kts | 134° |
| 2026-05-07 08:24 | 21.82394 | 38.95660 | 34881 ft | 485 kts | 134° |
| 2026-05-07 08:24 | 21.78439 | 39.01545 | 34884 ft | 485 kts | 134° |
| 2026-05-07 08:25 | 21.74477 | 39.07405 | 34885 ft | 482 kts | 137° |
| 2026-05-07 08:25 | 21.72108 | 39.09812 | 34861 ft | 457 kts | 157° |
| 2026-05-07 08:25 | 21.69332 | 39.11314 | 34887 ft | 440 kts | 169° |
| 2026-05-07 08:25 | 21.66452 | 39.12116 | 34880 ft | 426 kts | 181° |
| 2026-05-07 08:26 | 21.60636 | 39.12129 | 34883 ft | 415 kts | 191° |
| 2026-05-07 08:26 | 21.54848 | 39.11787 | 34881 ft | 414 kts | 192° |
| 2026-05-07 08:27 | 21.48999 | 39.11758 | 34885 ft | 423 kts | 186° |
| 2026-05-07 08:27 | 21.43112 | 39.11699 | 34874 ft | 422 kts | 188° |
| 2026-05-07 08:28 | 21.37238 | 39.11492 | 34885 ft | 423 kts | 188° |
| 2026-05-07 08:28 | 21.31321 | 39.11307 | 34884 ft | 426 kts | 188° |
| 2026-05-07 08:29 | 21.25393 | 39.11149 | 34886 ft | 427 kts | 188° |
| 2026-05-07 08:29 | 21.19490 | 39.11002 | 34866 ft | 427 kts | 188° |
| 2026-05-07 08:30 | 21.13539 | 39.10856 | 34885 ft | 427 kts | 188° |
| 2026-05-07 08:30 | 21.07595 | 39.10709 | 34891 ft | 427 kts | 188° |
| 2026-05-07 08:31 | 21.01653 | 39.10562 | 34889 ft | 427 kts | 188° |
| 2026-05-07 08:31 | 20.95716 | 39.10415 | 34892 ft | 427 kts | 188° |
| 2026-05-07 08:32 | 20.89776 | 39.10268 | 34878 ft | 426 kts | 187° |
| 2026-05-07 08:32 | 20.83857 | 39.10121 | 34883 ft | 426 kts | 187° |
| 2026-05-07 08:33 | 20.77944 | 39.09974 | 34882 ft | 425 kts | 187° |
| 2026-05-07 08:33 | 20.72026 | 39.09828 | 34883 ft | 425 kts | 187° |
| 2026-05-07 08:34 | 20.66113 | 39.09680 | 34876 ft | 424 kts | 187° |
| 2026-05-07 08:34 | 20.61205 | 39.09554 | 34881 ft | 424 kts | 187° |
| 2026-05-07 08:35 | 20.55306 | 39.09403 | 34886 ft | 424 kts | 187° |
| 2026-05-07 08:35 | 20.49386 | 39.09252 | 34885 ft | 425 kts | 187° |
| 2026-05-07 08:36 | 20.43480 | 39.09101 | 34886 ft | 425 kts | 187° |
| 2026-05-07 08:36 | 20.37560 | 39.08951 | 34884 ft | 425 kts | 187° |
| 2026-05-07 08:37 | 20.31646 | 39.08801 | 34887 ft | 426 kts | 187° |
| 2026-05-07 08:37 | 20.25716 | 39.08650 | 34889 ft | 426 kts | 187° |
| 2026-05-07 08:38 | 20.19819 | 39.08500 | 34888 ft | 427 kts | 187° |
| 2026-05-07 08:38 | 20.13869 | 39.08350 | 34879 ft | 427 kts | 187° |
| 2026-05-07 08:39 | 20.07923 | 39.08199 | 34888 ft | 427 kts | 187° |
| 2026-05-07 08:39 | 20.01978 | 39.08049 | 34886 ft | 428 kts | 187° |
| 2026-05-07 08:40 | 19.96016 | 39.07898 | 34885 ft | 428 kts | 187° |
| 2026-05-07 08:40 | 19.90059 | 39.07747 | 34866 ft | 429 kts | 187° |
| 2026-05-07 08:41 | 19.84090 | 39.07597 | 34882 ft | 429 kts | 187° |
| 2026-05-07 08:41 | 19.78118 | 39.07446 | 34885 ft | 429 kts | 187° |
| 2026-05-07 08:42 | 19.72184 | 39.07296 | 34894 ft | 429 kts | 187° |
| 2026-05-07 08:42 | 19.66207 | 39.07146 | 34881 ft | 429 kts | 187° |
| 2026-05-07 08:43 | 19.60236 | 39.06996 | 34895 ft | 429 kts | 187° |
| 2026-05-07 08:43 | 19.54261 | 39.06845 | 34894 ft | 429 kts | 187° |
| 2026-05-07 08:44 | 19.48295 | 39.06695 | 34884 ft | 429 kts | 187° |
| 2026-05-07 08:44 | 19.42324 | 39.06545 | 34884 ft | 429 kts | 187° |
| 2026-05-07 08:45 | 19.36362 | 39.06396 | 34878 ft | 428 kts | 187° |
| 2026-05-07 08:45 | 19.30398 | 39.06246 | 34883 ft | 428 kts | 187° |
| 2026-05-07 08:46 | 19.24445 | 39.06097 | 34888 ft | 428 kts | 187° |
| 2026-05-07 08:46 | 19.18515 | 39.05948 | 34888 ft | 429 kts | 187° |
| 2026-05-07 08:47 | 19.12543 | 39.05798 | 34880 ft | 429 kts | 187° |
| 2026-05-07 08:47 | 19.06580 | 39.05518 | 34886 ft | 428 kts | 188° |
| 2026-05-07 08:48 | 19.00632 | 39.05159 | 34889 ft | 429 kts | 188° |
| 2026-05-07 08:48 | 18.94654 | 39.04808 | 34890 ft | 430 kts | 188° |
| 2026-05-07 08:49 | 18.88685 | 39.04471 | 34885 ft | 430 kts | 188° |
| 2026-05-07 08:49 | 18.82704 | 39.04139 | 34878 ft | 431 kts | 188° |
| 2026-05-07 08:50 | 18.76742 | 39.03809 | 34889 ft | 432 kts | 188° |
| 2026-05-07 08:50 | 18.70694 | 39.03474 | 34888 ft | 433 kts | 188° |
| 2026-05-07 08:51 | 18.64718 | 39.03144 | 34888 ft | 433 kts | 188° |
| 2026-05-07 08:51 | 18.58693 | 39.02810 | 34876 ft | 434 kts | 188° |
| 2026-05-07 08:52 | 18.52652 | 39.02477 | 34889 ft | 435 kts | 188° |
| 2026-05-07 08:52 | 18.46611 | 39.02143 | 34889 ft | 435 kts | 188° |
| 2026-05-07 08:53 | 18.40553 | 39.01809 | 34887 ft | 436 kts | 188° |
| 2026-05-07 08:53 | 18.34500 | 39.01475 | 34885 ft | 436 kts | 188° |
| 2026-05-07 08:54 | 18.28434 | 39.01141 | 34878 ft | 436 kts | 187° |
| 2026-05-07 08:54 | 18.22367 | 39.00807 | 34885 ft | 436 kts | 187° |
| 2026-05-07 08:55 | 18.16293 | 39.00473 | 34886 ft | 437 kts | 187° |
| 2026-05-07 08:55 | 18.10205 | 39.00227 | 34890 ft | 438 kts | 186° |
| 2026-05-07 08:56 | 18.04109 | 39.00023 | 34880 ft | 438 kts | 186° |
| 2026-05-07 08:56 | 17.98019 | 38.99812 | 34893 ft | 438 kts | 186° |
| 2026-05-07 08:57 | 17.91957 | 38.99593 | 34888 ft | 439 kts | 186° |
| 2026-05-07 08:57 | 17.85848 | 38.99370 | 34885 ft | 439 kts | 186° |
| 2026-05-07 08:58 | 17.79739 | 38.99147 | 34872 ft | 440 kts | 186° |
| 2026-05-07 08:58 | 17.73629 | 38.98924 | 34893 ft | 440 kts | 186° |
| 2026-05-07 08:59 | 17.67502 | 38.98701 | 34882 ft | 440 kts | 186° |
| 2026-05-07 08:59 | 17.61378 | 38.98479 | 34881 ft | 441 kts | 186° |
| 2026-05-07 09:00 | 17.55238 | 38.98255 | 34882 ft | 441 kts | 186° |
| 2026-05-07 09:00 | 17.49099 | 38.98032 | 34883 ft | 441 kts | 185° |
| 2026-05-07 09:01 | 17.42963 | 38.97810 | 34883 ft | 442 kts | 185° |
| 2026-05-07 09:01 | 17.36789 | 38.97585 | 35083 ft | 444 kts | 185° |
| 2026-05-07 09:02 | 17.33718 | 38.97474 | 35395 ft | 441 kts | 185° |
| 2026-05-07 09:02 | 17.30662 | 38.97364 | 35708 ft | 438 kts | 185° |
| 2026-05-07 09:02 | 17.27613 | 38.97254 | 35878 ft | 437 kts | 185° |
| 2026-05-07 09:02 | 17.24571 | 38.97143 | 35860 ft | 440 kts | 185° |
| 2026-05-07 09:03 | 17.18469 | 38.96920 | 35871 ft | 442 kts | 185° |
| 2026-05-07 09:03 | 17.12335 | 38.96699 | 35879 ft | 440 kts | 185° |
| 2026-05-07 09:04 | 17.06203 | 38.96477 | 35880 ft | 439 kts | 185° |
| 2026-05-07 09:04 | 17.00107 | 38.96257 | 35884 ft | 438 kts | 185° |
| 2026-05-07 09:05 | 16.94013 | 38.96036 | 35881 ft | 438 kts | 185° |
| 2026-05-07 09:05 | 16.87933 | 38.95817 | 35883 ft | 437 kts | 185° |
| 2026-05-07 09:06 | 16.81885 | 38.95598 | 35883 ft | 437 kts | 185° |
| 2026-05-07 09:06 | 16.75795 | 38.95378 | 35882 ft | 437 kts | 185° |
| 2026-05-07 09:07 | 16.69714 | 38.95159 | 35885 ft | 438 kts | 185° |
| 2026-05-07 09:07 | 16.63610 | 38.94938 | 35883 ft | 439 kts | 185° |
| 2026-05-07 09:08 | 16.57503 | 38.94718 | 35883 ft | 440 kts | 185° |
| 2026-05-07 09:08 | 16.51382 | 38.94498 | 35883 ft | 440 kts | 185° |
| 2026-05-07 09:09 | 16.45256 | 38.94278 | 35886 ft | 441 kts | 185° |
| 2026-05-07 09:09 | 16.39105 | 38.94056 | 35907 ft | 443 kts | 185° |
| 2026-05-07 09:10 | 16.32917 | 38.93833 | 35877 ft | 445 kts | 185° |
| 2026-05-07 09:10 | 16.26772 | 38.93614 | 35902 ft | 444 kts | 185° |
| 2026-05-07 09:11 | 16.20603 | 38.93393 | 35899 ft | 443 kts | 185° |
| 2026-05-07 09:11 | 16.14436 | 38.93172 | 35903 ft | 442 kts | 185° |
| 2026-05-07 09:12 | 16.08288 | 38.92951 | 35912 ft | 441 kts | 185° |
| 2026-05-07 09:12 | 16.02149 | 38.92732 | 35921 ft | 441 kts | 185° |
| 2026-05-07 09:13 | 15.96017 | 38.92512 | 35918 ft | 440 kts | 185° |
| 2026-05-07 09:13 | 15.89926 | 38.92294 | 35916 ft | 440 kts | 185° |
| 2026-05-07 09:14 | 15.83808 | 38.92075 | 35942 ft | 440 kts | 184° |
| 2026-05-07 09:14 | 15.77673 | 38.91856 | 35936 ft | 440 kts | 185° |
| 2026-05-07 09:15 | 15.71529 | 38.91636 | 35945 ft | 441 kts | 185° |
| 2026-05-07 09:15 | 15.65434 | 38.91419 | 35933 ft | 440 kts | 185° |
| 2026-05-07 09:16 | 15.59320 | 38.91201 | 35942 ft | 440 kts | 184° |
| 2026-05-07 09:16 | 15.53200 | 38.90983 | 35987 ft | 438 kts | 184° |
| 2026-05-07 09:17 | 15.47055 | 38.90764 | 35975 ft | 445 kts | 184° |
| 2026-05-07 09:17 | 15.40827 | 38.90542 | 35967 ft | 448 kts | 184° |
| 2026-05-07 09:18 | 15.34582 | 38.90320 | 35967 ft | 450 kts | 184° |
| 2026-05-07 09:18 | 15.28312 | 38.90097 | 35966 ft | 450 kts | 184° |
| 2026-05-07 09:19 | 15.22093 | 38.90024 | 36057 ft | 451 kts | 182° |
| 2026-05-07 09:19 | 15.18954 | 38.90038 | 36337 ft | 448 kts | 182° |
| 2026-05-07 09:19 | 15.15859 | 38.90055 | 36663 ft | 444 kts | 182° |
| 2026-05-07 09:20 | 15.12777 | 38.90067 | 36961 ft | 441 kts | 182° |
| 2026-05-07 09:20 | 15.09719 | 38.90073 | 37172 ft | 440 kts | 182° |
| 2026-05-07 09:20 | 15.06647 | 38.90073 | 37273 ft | 442 kts | 182° |
| 2026-05-07 09:20 | 15.03557 | 38.90070 | 37376 ft | 443 kts | 182° |
| 2026-05-07 09:21 | 15.01514 | 38.90067 | 37496 ft | 443 kts | 182° |
| 2026-05-07 09:21 | 14.98443 | 38.90063 | 37705 ft | 441 kts | 182° |
| 2026-05-07 09:21 | 14.95366 | 38.90059 | 37920 ft | 440 kts | 182° |
| 2026-05-07 09:21 | 14.92305 | 38.90054 | 37918 ft | 442 kts | 182° |
| 2026-05-07 09:22 | 14.86137 | 38.90046 | 37909 ft | 442 kts | 182° |
| 2026-05-07 09:22 | 14.79989 | 38.90038 | 37925 ft | 441 kts | 182° |
| 2026-05-07 09:23 | 14.73844 | 38.90030 | 37921 ft | 440 kts | 183° |
| 2026-05-07 09:23 | 14.67757 | 38.90022 | 37913 ft | 440 kts | 182° |
| 2026-05-07 09:24 | 14.61643 | 38.90015 | 37918 ft | 440 kts | 183° |
| 2026-05-07 09:24 | 14.55506 | 38.90007 | 37911 ft | 440 kts | 182° |
| 2026-05-07 09:25 | 14.49381 | 38.89998 | 37914 ft | 440 kts | 183° |
| 2026-05-07 09:25 | 14.43255 | 38.89942 | 37931 ft | 441 kts | 183° |
| 2026-05-07 09:26 | 14.37115 | 38.89865 | 37919 ft | 442 kts | 183° |
| 2026-05-07 09:26 | 14.30965 | 38.89793 | 37934 ft | 443 kts | 183° |
| 2026-05-07 09:27 | 14.24791 | 38.89725 | 37921 ft | 443 kts | 183° |
| 2026-05-07 09:28 | 14.15525 | 38.89625 | 37932 ft | 445 kts | 183° |
| 2026-05-07 09:28 | 14.09378 | 38.89558 | 37936 ft | 445 kts | 183° |
| 2026-05-07 09:29 | 14.03180 | 38.89490 | 37938 ft | 445 kts | 183° |
| 2026-05-07 09:29 | 13.96985 | 38.89386 | 37930 ft | 445 kts | 184° |
| 2026-05-07 09:30 | 13.90790 | 38.89267 | 37934 ft | 444 kts | 184° |
| 2026-05-07 09:30 | 13.84604 | 38.89151 | 37924 ft | 445 kts | 184° |
| 2026-05-07 09:31 | 13.78422 | 38.89038 | 37919 ft | 444 kts | 184° |
| 2026-05-07 09:31 | 13.72242 | 38.88927 | 37913 ft | 444 kts | 184° |
| 2026-05-07 09:32 | 13.66108 | 38.88816 | 37928 ft | 444 kts | 184° |
| 2026-05-07 09:32 | 13.59928 | 38.88705 | 37904 ft | 444 kts | 184° |
| 2026-05-07 09:33 | 13.53748 | 38.88594 | 37895 ft | 444 kts | 184° |
| 2026-05-07 09:33 | 13.47558 | 38.88483 | 37914 ft | 444 kts | 184° |
| 2026-05-07 09:34 | 13.41387 | 38.88372 | 37880 ft | 444 kts | 184° |
| 2026-05-07 09:34 | 13.35190 | 38.88260 | 37884 ft | 445 kts | 184° |
| 2026-05-07 09:35 | 13.29007 | 38.88149 | 37895 ft | 445 kts | 184° |
| 2026-05-07 09:35 | 13.22840 | 38.88038 | 37882 ft | 446 kts | 184° |
| 2026-05-07 09:36 | 13.16636 | 38.87927 | 37875 ft | 446 kts | 184° |
| 2026-05-07 09:36 | 13.10415 | 38.87815 | 37864 ft | 447 kts | 184° |
| 2026-05-07 09:37 | 13.04190 | 38.87704 | 37888 ft | 447 kts | 184° |
| 2026-05-07 09:37 | 12.97962 | 38.87592 | 37880 ft | 448 kts | 183° |
| 2026-05-07 09:38 | 12.91719 | 38.87479 | 37880 ft | 448 kts | 184° |
| 2026-05-07 09:38 | 12.85487 | 38.87316 | 37895 ft | 448 kts | 184° |
| 2026-05-07 09:39 | 12.79238 | 38.87136 | 37891 ft | 449 kts | 184° |
| 2026-05-07 09:39 | 12.72979 | 38.86960 | 37913 ft | 450 kts | 184° |
| 2026-05-07 09:40 | 12.66711 | 38.86788 | 37901 ft | 450 kts | 184° |
| 2026-05-07 09:40 | 12.60491 | 38.86619 | 37926 ft | 450 kts | 184° |
| 2026-05-07 09:41 | 12.54217 | 38.86449 | 37925 ft | 451 kts | 184° |
| 2026-05-07 09:41 | 12.47947 | 38.86279 | 37947 ft | 451 kts | 184° |
| 2026-05-07 09:42 | 12.41649 | 38.86108 | 37944 ft | 452 kts | 184° |
| 2026-05-07 09:42 | 12.35362 | 38.85937 | 37943 ft | 452 kts | 184° |
| 2026-05-07 09:43 | 12.29078 | 38.85767 | 37947 ft | 452 kts | 184° |
| 2026-05-07 09:43 | 12.22774 | 38.85592 | 37961 ft | 452 kts | 184° |
| 2026-05-07 09:44 | 12.16530 | 38.85418 | 37962 ft | 452 kts | 184° |
| 2026-05-07 09:44 | 12.10243 | 38.85242 | 37955 ft | 452 kts | 184° |
| 2026-05-07 09:45 | 12.03949 | 38.85067 | 37975 ft | 452 kts | 184° |
| 2026-05-07 09:45 | 11.97656 | 38.84893 | 37972 ft | 452 kts | 184° |
| 2026-05-07 09:46 | 11.91346 | 38.84717 | 37984 ft | 453 kts | 184° |
| 2026-05-07 09:46 | 11.85047 | 38.84543 | 37958 ft | 453 kts | 184° |
| 2026-05-07 09:47 | 11.78743 | 38.84368 | 37962 ft | 453 kts | 184° |
| 2026-05-07 09:47 | 11.72429 | 38.84193 | 37955 ft | 453 kts | 184° |
| 2026-05-07 09:48 | 11.66157 | 38.84019 | 37966 ft | 453 kts | 184° |
| 2026-05-07 09:48 | 11.59848 | 38.83844 | 37966 ft | 453 kts | 184° |
| 2026-05-07 09:49 | 11.53534 | 38.83669 | 37967 ft | 454 kts | 184° |
| 2026-05-07 09:49 | 11.47213 | 38.83494 | 37960 ft | 454 kts | 184° |
| 2026-05-07 09:50 | 11.40893 | 38.83320 | 37956 ft | 455 kts | 184° |
| 2026-05-07 09:50 | 11.34553 | 38.83146 | 37943 ft | 456 kts | 184° |
| 2026-05-07 09:51 | 11.28205 | 38.82972 | 37936 ft | 456 kts | 184° |
| 2026-05-07 09:51 | 11.21868 | 38.82817 | 37949 ft | 456 kts | 184° |
| 2026-05-07 09:52 | 11.15562 | 38.82637 | 37945 ft | 455 kts | 184° |
| 2026-05-07 09:52 | 11.09182 | 38.82453 | 37950 ft | 456 kts | 184° |
| 2026-05-07 09:53 | 11.02884 | 38.82278 | 37960 ft | 456 kts | 184° |
| 2026-05-07 09:53 | 10.96538 | 38.82104 | 37963 ft | 456 kts | 184° |
| 2026-05-07 09:54 | 10.90190 | 38.81929 | 37942 ft | 456 kts | 184° |
| 2026-05-07 09:54 | 10.83860 | 38.81757 | 37955 ft | 455 kts | 184° |
| 2026-05-07 09:55 | 10.77521 | 38.81588 | 37952 ft | 455 kts | 184° |
| 2026-05-07 09:55 | 10.71182 | 38.81411 | 37948 ft | 456 kts | 184° |
| 2026-05-07 09:56 | 10.64847 | 38.81235 | 37935 ft | 456 kts | 184° |
| 2026-05-07 09:56 | 10.58497 | 38.81059 | 37902 ft | 456 kts | 184° |
| 2026-05-07 09:57 | 10.52179 | 38.80885 | 37914 ft | 457 kts | 184° |
| 2026-05-07 09:57 | 10.45819 | 38.80710 | 37896 ft | 457 kts | 184° |
| 2026-05-07 09:58 | 10.39447 | 38.80535 | 37886 ft | 458 kts | 184° |
| 2026-05-07 09:58 | 10.33073 | 38.80359 | 37884 ft | 458 kts | 184° |
| 2026-05-07 09:59 | 10.26702 | 38.80183 | 37873 ft | 458 kts | 184° |
| 2026-05-07 09:59 | 10.20361 | 38.80009 | 37885 ft | 458 kts | 184° |
| 2026-05-07 10:00 | 10.13989 | 38.79834 | 37886 ft | 458 kts | 184° |
| 2026-05-07 10:00 | 10.07604 | 38.79659 | 37899 ft | 459 kts | 184° |
| 2026-05-07 10:01 | 10.01227 | 38.79483 | 37919 ft | 459 kts | 184° |
| 2026-05-07 10:01 | 9.94839 | 38.79224 | 37906 ft | 459 kts | 184° |
| 2026-05-07 10:02 | 9.88462 | 38.79129 | 37924 ft | 457 kts | 185° |
| 2026-05-07 10:02 | 9.82098 | 38.78900 | 37924 ft | 457 kts | 185° |
| 2026-05-07 10:03 | 9.75737 | 38.78737 | 37954 ft | 457 kts | 182° |
| 2026-05-07 10:03 | 9.69370 | 38.78616 | 37945 ft | 458 kts | 182° |
| 2026-05-07 10:04 | 9.62998 | 38.78417 | 37961 ft | 458 kts | 183° |
| 2026-05-07 10:04 | 9.56654 | 38.78300 | 37975 ft | 458 kts | 185° |
| 2026-05-07 10:05 | 9.50282 | 38.78074 | 37983 ft | 459 kts | 184° |
| 2026-05-07 10:05 | 9.43886 | 38.77924 | 37979 ft | 460 kts | 182° |
| 2026-05-07 10:06 | 9.37493 | 38.77760 | 37990 ft | 460 kts | 184° |
| 2026-05-07 10:06 | 9.31086 | 38.77546 | 38006 ft | 461 kts | 182° |
| 2026-05-07 10:07 | 9.25753 | 38.77455 | 38007 ft | 461 kts | 183° |
| 2026-05-07 10:07 | 9.19344 | 38.77234 | 37994 ft | 461 kts | 183° |
| 2026-05-07 10:08 | 9.12922 | 38.77035 | 38250 ft | 461 kts | 183° |
| 2026-05-07 10:08 | 9.06599 | 38.76142 | 38336 ft | 457 kts | 195° |
| 2026-05-07 10:09 | 9.00422 | 38.74570 | 38332 ft | 457 kts | 198° |
| 2026-05-07 10:09 | 8.94295 | 38.72889 | 38317 ft | 456 kts | 196° |
| 2026-05-07 10:10 | 8.88143 | 38.71342 | 38285 ft | 455 kts | 195° |
| 2026-05-07 10:10 | 8.82009 | 38.69747 | 38205 ft | 454 kts | 196° |
| 2026-05-07 10:11 | 8.75846 | 38.68304 | 38112 ft | 454 kts | 192° |
| 2026-05-07 10:11 | 8.69744 | 38.66860 | 38014 ft | 453 kts | 196° |
| 2026-05-07 10:12 | 8.63650 | 38.65245 | 37959 ft | 452 kts | 197° |
| 2026-05-07 10:12 | 8.57548 | 38.63699 | 37948 ft | 453 kts | 196° |
| 2026-05-07 10:13 | 8.51417 | 38.62182 | 37951 ft | 454 kts | 194° |
| 2026-05-07 10:13 | 8.45291 | 38.60607 | 37962 ft | 454 kts | 197° |
| 2026-05-07 10:14 | 8.39140 | 38.59096 | 37977 ft | 456 kts | 194° |
| 2026-05-07 10:14 | 8.32953 | 38.57603 | 37977 ft | 457 kts | 198° |
| 2026-05-07 10:15 | 8.26795 | 38.55966 | 37967 ft | 459 kts | 194° |
| 2026-05-07 10:15 | 8.20603 | 38.54409 | 37968 ft | 459 kts | 196° |
| 2026-05-07 10:16 | 8.14412 | 38.52908 | 37968 ft | 460 kts | 194° |
| 2026-05-07 10:16 | 8.08197 | 38.51370 | 37959 ft | 460 kts | 195° |
| 2026-05-07 10:17 | 8.01975 | 38.49810 | 37955 ft | 460 kts | 196° |
| 2026-05-07 10:17 | 7.95751 | 38.48257 | 37918 ft | 461 kts | 194° |
| 2026-05-07 10:18 | 7.89519 | 38.46764 | 37948 ft | 460 kts | 196° |
| 2026-05-07 10:18 | 7.83332 | 38.45112 | 37920 ft | 460 kts | 195° |
| 2026-05-07 10:19 | 7.77120 | 38.43625 | 37931 ft | 459 kts | 195° |
| 2026-05-07 10:19 | 7.70909 | 38.42116 | 37909 ft | 458 kts | 196° |
| 2026-05-07 10:20 | 7.64813 | 38.40479 | 37922 ft | 457 kts | 193° |
| 2026-05-07 10:20 | 7.58607 | 38.39090 | 37915 ft | 456 kts | 197° |
| 2026-05-07 10:21 | 7.52476 | 38.37494 | 37924 ft | 456 kts | 196° |
| 2026-05-07 10:21 | 7.46328 | 38.35937 | 37930 ft | 455 kts | 196° |
| 2026-05-07 10:22 | 7.40212 | 38.34251 | 37922 ft | 455 kts | 196° |
| 2026-05-07 10:22 | 7.34084 | 38.32576 | 37930 ft | 456 kts | 198° |
| 2026-05-07 10:23 | 7.27948 | 38.30895 | 37933 ft | 458 kts | 195° |
| 2026-05-07 10:23 | 7.21799 | 38.29337 | 37940 ft | 459 kts | 197° |
| 2026-05-07 10:24 | 7.15648 | 38.27617 | 37939 ft | 460 kts | 197° |
| 2026-05-07 10:24 | 7.09476 | 38.25885 | 37943 ft | 461 kts | 196° |
| 2026-05-07 10:25 | 7.03275 | 38.24199 | 37943 ft | 461 kts | 195° |
| 2026-05-07 10:25 | 6.97073 | 38.22527 | 37942 ft | 462 kts | 196° |
| 2026-05-07 10:26 | 6.90869 | 38.20847 | 37944 ft | 462 kts | 196° |
| 2026-05-07 10:26 | 6.84665 | 38.19138 | 37942 ft | 461 kts | 196° |
| 2026-05-07 10:27 | 6.78479 | 38.17429 | 37934 ft | 460 kts | 195° |
| 2026-05-07 10:27 | 6.72299 | 38.15795 | 37926 ft | 459 kts | 195° |
| 2026-05-07 10:28 | 6.66134 | 38.14138 | 37937 ft | 457 kts | 196° |
| 2026-05-07 10:28 | 6.59991 | 38.12470 | 37936 ft | 456 kts | 196° |
| 2026-05-07 10:29 | 6.53884 | 38.10764 | 37935 ft | 454 kts | 196° |
| 2026-05-07 10:29 | 6.47827 | 38.09121 | 37926 ft | 453 kts | 196° |
| 2026-05-07 10:30 | 6.38683 | 38.06683 | 37938 ft | 453 kts | 197° |
| 2026-05-07 10:30 | 6.32587 | 38.05019 | 37949 ft | 454 kts | 196° |
| 2026-05-07 10:31 | 6.26485 | 38.03341 | 37945 ft | 455 kts | 198° |
| 2026-05-07 10:31 | 6.20353 | 38.01659 | 37969 ft | 457 kts | 196° |
| 2026-05-07 10:32 | 6.14238 | 38.00013 | 37953 ft | 459 kts | 196° |
| 2026-05-07 10:32 | 6.08049 | 37.98331 | 37954 ft | 461 kts | 196° |
| 2026-05-07 10:33 | 6.01838 | 37.96639 | 37955 ft | 463 kts | 196° |
| 2026-05-07 10:33 | 5.95631 | 37.94906 | 37963 ft | 464 kts | 197° |
| 2026-05-07 10:34 | 5.89388 | 37.93193 | 37947 ft | 465 kts | 195° |
| 2026-05-07 10:34 | 5.83121 | 37.91554 | 37957 ft | 465 kts | 196° |
| 2026-05-07 10:35 | 5.76891 | 37.89842 | 37942 ft | 464 kts | 197° |
| 2026-05-07 10:35 | 5.70666 | 37.88155 | 37955 ft | 463 kts | 197° |
| 2026-05-07 10:36 | 5.64474 | 37.86494 | 37963 ft | 462 kts | 197° |
| 2026-05-07 10:36 | 5.58284 | 37.84766 | 37953 ft | 461 kts | 197° |
| 2026-05-07 10:37 | 5.52110 | 37.83057 | 37965 ft | 460 kts | 196° |
| 2026-05-07 10:37 | 5.45903 | 37.81474 | 37960 ft | 459 kts | 196° |
| 2026-05-07 10:38 | 5.39730 | 37.79795 | 37948 ft | 459 kts | 196° |
| 2026-05-07 10:38 | 5.33567 | 37.78090 | 37952 ft | 459 kts | 196° |
| 2026-05-07 10:39 | 5.27398 | 37.76401 | 37937 ft | 459 kts | 195° |
| 2026-05-07 10:39 | 5.21224 | 37.74724 | 37939 ft | 459 kts | 195° |
| 2026-05-07 10:40 | 5.15094 | 37.73062 | 37932 ft | 459 kts | 196° |
| 2026-05-07 10:40 | 5.08913 | 37.71362 | 37929 ft | 459 kts | 197° |
| 2026-05-07 10:41 | 5.02742 | 37.69671 | 37920 ft | 460 kts | 195° |
| 2026-05-07 10:41 | 4.96548 | 37.68018 | 37918 ft | 460 kts | 196° |
| 2026-05-07 10:42 | 4.90352 | 37.66351 | 37921 ft | 460 kts | 196° |
| 2026-05-07 10:42 | 4.84168 | 37.64677 | 37916 ft | 461 kts | 196° |
| 2026-05-07 10:43 | 4.78010 | 37.63007 | 37920 ft | 461 kts | 197° |
| 2026-05-07 10:43 | 4.71780 | 37.61318 | 37918 ft | 461 kts | 197° |
| 2026-05-07 10:44 | 4.65628 | 37.59650 | 37913 ft | 461 kts | 196° |
| 2026-05-07 10:44 | 4.59443 | 37.57946 | 37918 ft | 461 kts | 198° |
| 2026-05-07 10:45 | 4.53253 | 37.56230 | 37892 ft | 461 kts | 194° |
| 2026-05-07 10:45 | 4.47073 | 37.54536 | 37900 ft | 461 kts | 195° |
| 2026-05-07 10:46 | 4.40838 | 37.53038 | 37908 ft | 461 kts | 195° |
| 2026-05-07 10:46 | 4.34661 | 37.51331 | 37889 ft | 460 kts | 197° |
| 2026-05-07 10:47 | 4.28495 | 37.49609 | 37893 ft | 460 kts | 197° |
| 2026-05-07 10:47 | 4.22333 | 37.47850 | 37884 ft | 460 kts | 195° |
| 2026-05-07 10:48 | 4.16165 | 37.46272 | 37871 ft | 461 kts | 194° |
| 2026-05-07 10:48 | 4.09956 | 37.44662 | 37885 ft | 461 kts | 197° |
| 2026-05-07 10:49 | 4.03803 | 37.42847 | 37878 ft | 461 kts | 195° |
| 2026-05-07 10:49 | 3.97584 | 37.41272 | 37878 ft | 461 kts | 197° |
| 2026-05-07 10:50 | 3.91418 | 37.39449 | 37872 ft | 462 kts | 197° |
| 2026-05-07 10:50 | 3.85268 | 37.37553 | 37883 ft | 462 kts | 198° |
| 2026-05-07 10:51 | 3.79094 | 37.35713 | 37877 ft | 463 kts | 197° |
| 2026-05-07 10:51 | 3.72921 | 37.33866 | 37866 ft | 463 kts | 198° |
| 2026-05-07 10:52 | 3.66722 | 37.32051 | 37858 ft | 464 kts | 198° |
| 2026-05-07 10:52 | 3.60572 | 37.30233 | 37837 ft | 464 kts | 197° |
| 2026-05-07 10:53 | 3.54373 | 37.28407 | 37853 ft | 464 kts | 198° |
| 2026-05-07 10:53 | 3.48182 | 37.26555 | 37843 ft | 464 kts | 197° |
| 2026-05-07 10:54 | 3.43029 | 37.25054 | 37851 ft | 463 kts | 198° |
| 2026-05-07 10:54 | 3.36839 | 37.23212 | 37847 ft | 464 kts | 197° |
| 2026-05-07 10:55 | 3.30643 | 37.21430 | 37843 ft | 463 kts | 198° |
| 2026-05-07 10:55 | 3.24459 | 37.19561 | 37837 ft | 463 kts | 196° |
| 2026-05-07 10:56 | 3.18266 | 37.17797 | 37838 ft | 463 kts | 198° |
| 2026-05-07 10:56 | 3.12087 | 37.15961 | 37854 ft | 462 kts | 197° |
| 2026-05-07 10:57 | 3.05938 | 37.14083 | 37848 ft | 462 kts | 198° |
| 2026-05-07 10:57 | 2.99765 | 37.12280 | 37826 ft | 463 kts | 197° |
| 2026-05-07 10:58 | 2.93615 | 37.10500 | 37839 ft | 463 kts | 198° |
| 2026-05-07 10:58 | 2.87447 | 37.08682 | 37859 ft | 463 kts | 198° |
| 2026-05-07 10:59 | 2.81274 | 37.06857 | 37854 ft | 463 kts | 198° |
| 2026-05-07 10:59 | 2.75086 | 37.05030 | 37859 ft | 464 kts | 197° |
| 2026-05-07 11:00 | 2.68901 | 37.03208 | 37858 ft | 464 kts | 197° |
| 2026-05-07 11:00 | 2.62689 | 37.01380 | 37861 ft | 464 kts | 198° |
| 2026-05-07 11:01 | 2.56498 | 36.99555 | 37855 ft | 464 kts | 198° |
| 2026-05-07 11:01 | 2.50340 | 36.97711 | 37869 ft | 464 kts | 198° |
| 2026-05-07 11:02 | 2.44149 | 36.95887 | 37850 ft | 464 kts | 197° |
| 2026-05-07 11:02 | 2.37911 | 36.94086 | 37866 ft | 463 kts | 197° |
| 2026-05-07 11:03 | 2.31777 | 36.92287 | 37864 ft | 463 kts | 197° |
| 2026-05-07 11:03 | 2.25577 | 36.90452 | 37872 ft | 463 kts | 197° |
| 2026-05-07 11:04 | 2.19405 | 36.88627 | 37873 ft | 463 kts | 197° |
| 2026-05-07 11:04 | 2.13224 | 36.86805 | 37871 ft | 463 kts | 197° |
| 2026-05-07 11:05 | 2.07061 | 36.84970 | 37867 ft | 463 kts | 197° |
| 2026-05-07 11:05 | 2.00869 | 36.83196 | 37878 ft | 463 kts | 197° |
| 2026-05-07 11:06 | 1.94696 | 36.81378 | 37882 ft | 463 kts | 197° |
| 2026-05-07 11:06 | 1.88554 | 36.79552 | 37880 ft | 463 kts | 197° |
| 2026-05-07 11:07 | 1.82338 | 36.77715 | 37888 ft | 464 kts | 197° |
| 2026-05-07 11:07 | 1.76176 | 36.75901 | 37882 ft | 464 kts | 197° |
| 2026-05-07 11:08 | 1.69978 | 36.74078 | 37876 ft | 465 kts | 197° |
| 2026-05-07 11:08 | 1.63762 | 36.72250 | 37878 ft | 465 kts | 197° |
| 2026-05-07 11:09 | 1.57539 | 36.70418 | 37870 ft | 466 kts | 197° |
| 2026-05-07 11:09 | 1.51321 | 36.68588 | 37875 ft | 466 kts | 197° |
| 2026-05-07 11:10 | 1.45089 | 36.66754 | 37910 ft | 466 kts | 197° |
| 2026-05-07 11:10 | 1.38847 | 36.64916 | 37882 ft | 467 kts | 197° |
| 2026-05-07 11:11 | 1.32660 | 36.63097 | 37906 ft | 466 kts | 197° |
| 2026-05-07 11:11 | 1.26408 | 36.61258 | 37902 ft | 466 kts | 197° |
| 2026-05-07 11:12 | 1.20179 | 36.59425 | 37921 ft | 466 kts | 197° |
| 2026-05-07 11:12 | 1.13999 | 36.57608 | 37916 ft | 466 kts | 197° |
| 2026-05-07 11:13 | 1.07791 | 36.55781 | 37934 ft | 465 kts | 197° |
| 2026-05-07 11:13 | 1.01575 | 36.53983 | 37907 ft | 465 kts | 193° |
| 2026-05-07 11:14 | 0.95133 | 36.53480 | 37939 ft | 465 kts | 177° |
| 2026-05-07 11:14 | 0.88664 | 36.53825 | 37935 ft | 465 kts | 178° |
| 2026-05-07 11:15 | 0.82235 | 36.54150 | 37944 ft | 465 kts | 178° |
| 2026-05-07 11:15 | 0.75773 | 36.54443 | 37946 ft | 464 kts | 178° |
| 2026-05-07 11:16 | 0.72542 | 36.54583 | 37791 ft | 468 kts | 179° |
| 2026-05-07 11:16 | 0.69269 | 36.54724 | 37538 ft | 471 kts | 178° |
| 2026-05-07 11:16 | 0.65995 | 36.54865 | 37274 ft | 469 kts | 178° |
| 2026-05-07 11:16 | 0.62741 | 36.55005 | 37036 ft | 467 kts | 178° |
| 2026-05-07 11:17 | 0.56186 | 36.55288 | 36996 ft | 473 kts | 178° |
| 2026-05-07 11:17 | 0.49633 | 36.55574 | 36982 ft | 469 kts | 178° |
| 2026-05-07 11:18 | 0.43136 | 36.55818 | 37002 ft | 465 kts | 178° |
| 2026-05-07 11:18 | 0.36738 | 36.56065 | 37027 ft | 462 kts | 178° |
| 2026-05-07 11:19 | 0.30298 | 36.56383 | 37034 ft | 465 kts | 179° |
| 2026-05-07 11:19 | 0.23784 | 36.56658 | 37054 ft | 472 kts | 179° |
| 2026-05-07 11:20 | 0.17196 | 36.56932 | 37025 ft | 474 kts | 180° |
| 2026-05-07 11:20 | 0.13883 | 36.57031 | 36741 ft | 477 kts | 179° |
| 2026-05-07 11:20 | 0.10570 | 36.57160 | 36540 ft | 474 kts | 178° |
| 2026-05-07 11:21 | 0.07286 | 36.57320 | 36295 ft | 470 kts | 178° |
| 2026-05-07 11:21 | 0.04017 | 36.57479 | 36052 ft | 469 kts | 178° |
| 2026-05-07 11:21 | 0.00753 | 36.57655 | 35364 ft | 470 kts | 178° |
| 2026-05-07 11:21 | -0.02522 | 36.57814 | 34773 ft | 470 kts | 179° |
| 2026-05-07 11:22 | -0.05809 | 36.57942 | 34081 ft | 473 kts | 178° |
| 2026-05-07 11:22 | -0.09105 | 36.58112 | 33272 ft | 476 kts | 176° |
| 2026-05-07 11:22 | -0.12375 | 36.58284 | 32539 ft | 477 kts | 178° |
| 2026-05-07 11:22 | -0.15700 | 36.58430 | 31761 ft | 479 kts | 178° |
| 2026-05-07 11:23 | -0.19043 | 36.58586 | 30955 ft | 482 kts | 178° |
| 2026-05-07 11:23 | -0.22405 | 36.58727 | 30297 ft | 481 kts | 178° |
| 2026-05-07 11:23 | -0.25748 | 36.58864 | 29637 ft | 479 kts | 178° |
| 2026-05-07 11:23 | -0.29049 | 36.58999 | 29024 ft | 474 kts | 178° |
| 2026-05-07 11:24 | -0.32343 | 36.59136 | 28420 ft | 470 kts | 177° |
| 2026-05-07 11:24 | -0.35592 | 36.59275 | 27839 ft | 465 kts | 177° |
| 2026-05-07 11:24 | -0.38811 | 36.59417 | 27285 ft | 460 kts | 178° |
| 2026-05-07 11:24 | -0.41991 | 36.59521 | 26715 ft | 456 kts | 177° |
| 2026-05-07 11:25 | -0.45114 | 36.59654 | 26164 ft | 453 kts | 176° |
| 2026-05-07 11:25 | -0.48255 | 36.59798 | 25591 ft | 450 kts | 176° |
| 2026-05-07 11:25 | -0.51366 | 36.59943 | 25026 ft | 447 kts | 176° |
| 2026-05-07 11:25 | -0.54468 | 36.60086 | 24464 ft | 444 kts | 176° |
| 2026-05-07 11:26 | -0.57547 | 36.60228 | 23906 ft | 441 kts | 176° |
| 2026-05-07 11:26 | -0.60606 | 36.60360 | 23266 ft | 438 kts | 176° |
| 2026-05-07 11:26 | -0.63640 | 36.60485 | 22681 ft | 434 kts | 176° |
| 2026-05-07 11:26 | -0.66635 | 36.60616 | 22115 ft | 429 kts | 176° |
| 2026-05-07 11:27 | -0.69609 | 36.60748 | 21566 ft | 425 kts | 176° |
| 2026-05-07 11:27 | -0.72555 | 36.60883 | 21027 ft | 421 kts | 176° |
| 2026-05-07 11:27 | -0.75470 | 36.61026 | 20489 ft | 418 kts | 176° |
| 2026-05-07 11:27 | -0.78369 | 36.61146 | 19947 ft | 416 kts | 176° |
| 2026-05-07 11:28 | -0.81261 | 36.61259 | 19418 ft | 415 kts | 176° |
| 2026-05-07 11:28 | -0.84149 | 36.61372 | 18834 ft | 414 kts | 176° |
| 2026-05-07 11:28 | -0.87013 | 36.61496 | 18287 ft | 411 kts | 176° |
| 2026-05-07 11:28 | -0.89863 | 36.61609 | 17698 ft | 408 kts | 177° |
| 2026-05-07 11:29 | -0.92684 | 36.61724 | 17153 ft | 403 kts | 175° |
| 2026-05-07 11:29 | -0.95472 | 36.61855 | 16635 ft | 398 kts | 175° |
| 2026-05-07 11:29 | -0.98230 | 36.61969 | 16106 ft | 394 kts | 175° |
| 2026-05-07 11:29 | -1.00944 | 36.62122 | 15607 ft | 390 kts | 176° |
| 2026-05-07 11:30 | -1.03642 | 36.62248 | 15102 ft | 386 kts | 176° |
| 2026-05-07 11:30 | -1.06317 | 36.62362 | 14592 ft | 383 kts | 176° |
| 2026-05-07 11:30 | -1.08979 | 36.62463 | 14111 ft | 380 kts | 176° |
| 2026-05-07 11:30 | -1.11581 | 36.62596 | 13547 ft | 378 kts | 175° |
| 2026-05-07 11:31 | -1.14188 | 36.62714 | 13039 ft | 374 kts | 176° |
| 2026-05-07 11:31 | -1.16776 | 36.62806 | 12556 ft | 369 kts | 176° |
| 2026-05-07 11:31 | -1.19334 | 36.62907 | 12071 ft | 366 kts | 176° |
| 2026-05-07 11:31 | -1.21874 | 36.63026 | 11564 ft | 364 kts | 176° |
| 2026-05-07 11:32 | -1.26844 | 36.63255 | 10964 ft | 347 kts | 175° |
| 2026-05-07 11:32 | -1.29225 | 36.63353 | 10800 ft | 336 kts | 176° |
| 2026-05-07 11:32 | -1.31528 | 36.63449 | 10664 ft | 326 kts | 175° |
| 2026-05-07 11:33 | -1.33762 | 36.63542 | 10525 ft | 316 kts | 175° |
| 2026-05-07 11:33 | -1.35930 | 36.63634 | 10388 ft | 307 kts | 176° |
| 2026-05-07 11:33 | -1.37968 | 36.64075 | 10247 ft | 296 kts | 152° |
| 2026-05-07 11:33 | -1.39559 | 36.65289 | 10205 ft | 283 kts | 129° |
| 2026-05-07 11:34 | -1.40599 | 36.66938 | 9686 ft | 290 kts | 110° |
| 2026-05-07 11:34 | -1.41223 | 36.68842 | 9252 ft | 289 kts | 107° |
| 2026-05-07 11:34 | -1.41794 | 36.70756 | 8887 ft | 288 kts | 107° |
| 2026-05-07 11:34 | -1.42339 | 36.72653 | 8610 ft | 279 kts | 107° |
| 2026-05-07 11:35 | -1.42884 | 36.74500 | 8394 ft | 275 kts | 107° |
| 2026-05-07 11:35 | -1.43172 | 36.76356 | 8274 ft | 268 kts | 83° |
| 2026-05-07 11:35 | -1.42637 | 36.78075 | 8282 ft | 256 kts | 66° |
| 2026-05-07 11:35 | -1.41668 | 36.79533 | 8165 ft | 249 kts | 53° |
| 2026-05-07 11:36 | -1.40614 | 36.80883 | 7975 ft | 246 kts | 54° |
| 2026-05-07 11:36 | -1.39588 | 36.82237 | 7675 ft | 240 kts | 55° |
| 2026-05-07 11:36 | -1.38619 | 36.83570 | 7370 ft | 234 kts | 56° |
| 2026-05-07 11:36 | -1.37685 | 36.84857 | 7080 ft | 224 kts | 56° |
| 2026-05-07 11:37 | -1.36783 | 36.86091 | 6820 ft | 216 kts | 56° |
| 2026-05-07 11:37 | -1.35903 | 36.87267 | 6457 ft | 204 kts | 58° |
| 2026-05-07 11:37 | -1.35126 | 36.88397 | 6206 ft | 188 kts | 57° |
| 2026-05-07 11:37 | -1.34380 | 36.89392 | 5905 ft | 171 kts | 56° |
| 2026-05-07 11:38 | -1.33748 | 36.90287 | 5733 ft | 153 kts | 54° |
| 2026-05-07 11:38 | -1.33126 | 36.91130 | 5519 ft | 149 kts | 54° |
| 2026-05-07 11:38 | -1.32512 | 36.91976 | 5337 ft | 144 kts | 55° |
| 2026-05-07 11:38 | -1.31981 | 36.92701 | 5314 ft | 110 kts | 54° |
| 2026-05-07 11:39 | -1.31623 | 36.93192 | 5301 ft | 67 kts | 54° |
| 2026-05-07 11:39 | -1.31434 | 36.93453 | 5305 ft | 28 kts | 53° |
| 2026-05-07 11:39 | -1.31325 | 36.93595 | 5303 ft | 20 kts | 52° |
| 2026-05-07 11:39 | -1.31263 | 36.93675 | 5304 ft | 16 kts | 54° |
| 2026-05-07 11:40 | -1.31190 | 36.93782 | 5300 ft | 17 kts | 61° |
| 2026-05-07 11:40 | -1.31225 | 36.93870 | 5301 ft | 15 kts | 148° |
| 2026-05-07 11:40 | -1.31310 | 36.93929 | 5303 ft | 15 kts | 143° |
| 2026-05-07 11:40 | -1.31391 | 36.93988 | 5300 ft | 14 kts | 155° |
| 2026-05-07 11:41 | -1.31452 | 36.93979 | 5303 ft | 14 kts | 218° |
| 2026-05-07 11:41 | -1.31508 | 36.93905 | 5301 ft | 13 kts | 234° |
| 2026-05-07 11:41 | -1.31567 | 36.93824 | 5306 ft | 17 kts | 233° |
| 2026-05-07 11:41 | -1.31653 | 36.93707 | 5306 ft | 24 kts | 234° |
| 2026-05-07 11:42 | -1.31750 | 36.93575 | 5310 ft | 23 kts | 233° |